createdAt,value
2022-09-10T00:00:16.857Z,0.00
2022-09-10T00:01:16.836Z,0.00
2022-09-10T00:02:16.868Z,0.00
2022-09-10T00:03:16.837Z,0.00
2022-09-10T00:04:16.789Z,0.00
2022-09-10T00:05:16.753Z,0.00
2022-09-10T00:06:16.837Z,0.00
2022-09-10T00:07:16.802Z,0.00
2022-09-10T00:08:16.795Z,0.00
2022-09-10T00:09:16.757Z,0.00
2022-09-10T00:10:16.759Z,0.00
2022-09-10T00:11:16.770Z,0.00
2022-09-10T00:12:16.720Z,0.00
2022-09-10T00:13:16.725Z,0.00
2022-09-10T00:14:16.631Z,0.00
2022-09-10T00:16:25.413Z,0.00
2022-09-10T00:17:25.319Z,0.00
2022-09-10T00:18:25.300Z,0.00
2022-09-10T00:19:25.292Z,0.00
2022-09-10T00:20:25.290Z,0.00
2022-09-10T00:21:25.286Z,0.00
2022-09-10T00:22:25.254Z,0.00
2022-09-10T00:23:25.282Z,0.00
2022-09-10T00:24:25.233Z,0.00
2022-09-10T00:25:25.218Z,0.00
2022-09-10T00:26:25.232Z,0.00
2022-09-10T00:27:25.204Z,0.00
2022-09-10T00:28:25.213Z,0.00
2022-09-10T00:29:25.185Z,0.00
2022-09-10T00:30:25.180Z,0.00
2022-09-10T00:31:25.208Z,0.00
2022-09-10T00:32:25.176Z,0.00
2022-09-10T00:33:25.125Z,0.00
2022-09-10T00:34:25.127Z,0.00
2022-09-10T00:35:25.109Z,0.00
2022-09-10T00:36:25.094Z,0.00
2022-09-10T00:37:25.104Z,0.00
2022-09-10T00:38:25.070Z,0.00
2022-09-10T00:39:25.061Z,0.00
2022-09-10T00:40:25.056Z,0.00
2022-09-10T00:41:25.038Z,0.00
2022-09-10T00:42:25.046Z,0.00
2022-09-10T00:43:25.013Z,0.00
2022-09-10T00:44:25.004Z,0.00
2022-09-10T00:45:25.062Z,0.00
2022-09-10T00:46:25.001Z,0.00
2022-09-10T00:47:24.986Z,0.00
2022-09-10T00:48:24.975Z,0.00
2022-09-10T00:49:24.947Z,0.00
2022-09-10T00:50:24.934Z,0.00
2022-09-10T00:51:24.943Z,0.00
2022-09-10T00:52:24.922Z,0.00
2022-09-10T00:53:25.000Z,0.00
2022-09-10T00:54:24.887Z,0.00
2022-09-10T00:55:24.879Z,0.00
2022-09-10T00:56:24.866Z,0.00
2022-09-10T00:57:24.849Z,0.00
2022-09-10T00:58:24.842Z,0.00
2022-09-10T00:59:24.880Z,0.00
2022-09-10T01:00:24.824Z,0.00
2022-09-10T01:01:24.806Z,0.00
2022-09-10T01:02:24.816Z,0.00
2022-09-10T01:03:25.746Z,0.00
2022-09-10T01:04:24.790Z,0.00
2022-09-10T01:05:24.776Z,0.00
2022-09-10T01:06:24.752Z,0.00
2022-09-10T01:07:24.742Z,0.00
2022-09-10T01:08:24.749Z,0.00
2022-09-10T01:09:24.716Z,0.00
2022-09-10T01:10:24.705Z,0.00
2022-09-10T01:11:24.713Z,0.00
2022-09-10T01:12:24.681Z,0.00
2022-09-10T01:13:24.689Z,0.00
2022-09-10T01:14:24.661Z,0.00
2022-09-10T01:15:24.645Z,0.00
2022-09-10T01:16:24.670Z,0.00
2022-09-10T01:17:24.662Z,0.00
2022-09-10T01:18:24.613Z,0.00
2022-09-10T01:19:24.598Z,0.00
2022-09-10T01:20:24.625Z,0.00
2022-09-10T01:21:24.578Z,0.00
2022-09-10T01:22:24.567Z,0.00
2022-09-10T01:23:24.608Z,0.00
2022-09-10T01:24:24.545Z,0.00
2022-09-10T01:25:24.536Z,0.00
2022-09-10T01:26:24.520Z,0.00
2022-09-10T01:27:24.513Z,0.00
2022-09-10T01:28:24.521Z,0.00
2022-09-10T01:29:24.484Z,0.00
2022-09-10T01:30:24.483Z,0.00
2022-09-10T01:31:24.541Z,0.00
2022-09-10T01:32:24.452Z,0.00
2022-09-10T01:33:24.461Z,0.00
2022-09-10T01:34:24.432Z,0.00
2022-09-10T01:35:24.417Z,0.00
2022-09-10T01:36:24.425Z,0.00
2022-09-10T01:37:24.418Z,0.00
2022-09-10T01:38:24.411Z,0.00
2022-09-10T01:39:24.396Z,0.00
2022-09-10T01:40:24.361Z,0.00
2022-09-10T01:41:24.367Z,0.00
2022-09-10T01:42:24.334Z,0.00
2022-09-10T01:43:24.329Z,0.00
2022-09-10T01:44:24.334Z,0.00
2022-09-10T01:45:24.354Z,0.00
2022-09-10T01:46:24.294Z,0.00
2022-09-10T01:47:24.286Z,0.00
2022-09-10T01:48:24.270Z,0.00
2022-09-10T01:49:24.279Z,0.00
2022-09-10T01:50:24.259Z,0.00
2022-09-10T01:51:24.236Z,0.00
2022-09-10T01:52:24.242Z,0.00
2022-09-10T01:53:24.215Z,0.00
2022-09-10T01:54:24.222Z,0.00
2022-09-10T01:55:24.214Z,0.00
2022-09-10T01:56:24.180Z,0.00
2022-09-10T01:57:24.167Z,0.00
2022-09-10T01:58:24.172Z,0.00
2022-09-10T01:59:24.160Z,0.00
2022-09-10T02:00:24.131Z,0.00
2022-09-10T02:01:24.242Z,0.00
2022-09-10T02:02:24.162Z,0.00
2022-09-10T02:03:24.094Z,0.00
2022-09-10T02:04:24.133Z,0.00
2022-09-10T02:05:24.080Z,0.00
2022-09-10T02:06:24.067Z,0.00
2022-09-10T02:07:24.053Z,0.00
2022-09-10T02:08:24.056Z,0.00
2022-09-10T02:09:24.031Z,0.00
2022-09-10T02:10:24.049Z,0.00
2022-09-10T02:11:24.004Z,0.00
2022-09-10T02:12:24.040Z,0.00
2022-09-10T02:13:23.983Z,0.00
2022-09-10T02:14:23.971Z,0.00
2022-09-10T02:15:23.956Z,0.00
2022-09-10T02:16:24.012Z,0.00
2022-09-10T02:17:23.936Z,0.00
2022-09-10T02:18:23.925Z,0.00
2022-09-10T02:19:23.937Z,0.00
2022-09-10T02:20:23.904Z,0.00
2022-09-10T02:21:23.914Z,0.00
2022-09-10T02:22:23.893Z,0.00
2022-09-10T02:23:23.868Z,0.00
2022-09-10T02:24:23.873Z,0.00
2022-09-10T02:25:23.900Z,0.00
2022-09-10T02:26:23.860Z,0.00
2022-09-10T02:27:23.833Z,0.00
2022-09-10T02:28:23.813Z,0.00
2022-09-10T02:29:23.805Z,0.00
2022-09-10T02:30:23.818Z,0.00
2022-09-10T02:31:23.997Z,0.00
2022-09-10T02:32:23.771Z,0.00
2022-09-10T02:33:23.753Z,0.00
2022-09-10T02:34:23.761Z,0.00
2022-09-10T02:35:23.729Z,0.00
2022-09-10T02:36:23.743Z,0.00
2022-09-10T02:37:23.706Z,0.00
2022-09-10T02:38:23.697Z,0.00
2022-09-10T02:39:23.689Z,0.00
2022-09-10T02:40:23.691Z,0.00
2022-09-10T02:41:23.680Z,0.00
2022-09-10T02:42:23.669Z,0.00
2022-09-10T02:43:23.636Z,0.00
2022-09-10T02:44:23.629Z,0.00
2022-09-10T02:45:23.698Z,0.00
2022-09-10T02:46:23.624Z,0.00
2022-09-10T02:47:23.611Z,0.00
2022-09-10T02:48:23.583Z,0.00
2022-09-10T02:49:23.581Z,0.00
2022-09-10T02:50:23.577Z,0.00
2022-09-10T02:51:23.549Z,0.00
2022-09-10T02:52:23.559Z,0.00
2022-09-10T02:53:23.536Z,0.00
2022-09-10T02:54:23.514Z,0.00
2022-09-10T02:55:23.499Z,0.00
2022-09-10T02:56:23.509Z,0.00
2022-09-10T02:57:23.502Z,0.00
2022-09-10T02:58:23.463Z,0.00
2022-09-10T02:59:23.466Z,0.00
2022-09-10T03:00:23.445Z,0.00
2022-09-10T03:01:23.491Z,0.00
2022-09-10T03:02:23.464Z,0.00
2022-09-10T03:03:23.406Z,0.00
2022-09-10T03:04:23.417Z,0.00
2022-09-10T03:05:23.475Z,0.00
2022-09-10T03:06:23.388Z,0.00
2022-09-10T03:07:23.387Z,0.00
2022-09-10T03:08:23.372Z,0.00
2022-09-10T03:09:23.338Z,0.00
2022-09-10T03:10:23.330Z,0.00
2022-09-10T03:11:23.323Z,0.00
2022-09-10T03:12:23.326Z,0.00
2022-09-10T03:13:23.348Z,0.00
2022-09-10T03:14:23.297Z,0.00
2022-09-10T03:15:23.292Z,0.00
2022-09-10T03:16:23.311Z,0.00
2022-09-10T03:17:23.245Z,0.00
2022-09-10T03:18:23.256Z,0.00
2022-09-10T03:19:23.226Z,0.00
2022-09-10T03:20:23.216Z,0.00
2022-09-10T03:21:23.201Z,0.00
2022-09-10T03:22:23.210Z,0.00
2022-09-10T03:23:23.197Z,0.00
2022-09-10T03:24:23.206Z,0.00
2022-09-10T03:25:23.158Z,0.00
2022-09-10T03:26:23.145Z,0.00
2022-09-10T03:27:23.133Z,0.00
2022-09-10T03:28:23.146Z,0.00
2022-09-10T03:29:23.136Z,0.00
2022-09-10T03:30:23.097Z,0.00
2022-09-10T03:31:23.157Z,0.00
2022-09-10T03:32:23.079Z,0.00
2022-09-10T03:33:23.065Z,0.00
2022-09-10T03:34:23.068Z,0.00
2022-09-10T03:35:23.066Z,0.00
2022-09-10T03:36:23.034Z,0.00
2022-09-10T03:37:23.021Z,0.00
2022-09-10T03:38:23.005Z,0.00
2022-09-10T03:39:23.017Z,0.00
2022-09-10T03:40:22.987Z,0.00
2022-09-10T03:41:22.987Z,0.00
2022-09-10T03:42:22.963Z,0.00
2022-09-10T03:43:22.950Z,0.00
2022-09-10T03:44:22.954Z,0.00
2022-09-10T03:45:23.004Z,0.00
2022-09-10T03:46:22.925Z,0.00
2022-09-10T03:47:22.924Z,0.00
2022-09-10T03:48:22.895Z,0.00
2022-09-10T03:49:22.876Z,0.00
2022-09-10T03:50:22.893Z,0.00
2022-09-10T03:51:22.876Z,0.00
2022-09-10T03:52:22.868Z,0.00
2022-09-10T03:53:22.834Z,0.00
2022-09-10T03:54:22.824Z,0.00
2022-09-10T03:55:22.810Z,0.00
2022-09-10T03:56:22.818Z,0.00
2022-09-10T03:57:22.815Z,0.00
2022-09-10T03:58:22.783Z,0.00
2022-09-10T03:59:22.766Z,0.00
2022-09-10T04:00:22.771Z,0.00
2022-09-10T04:01:22.766Z,0.00
2022-09-10T04:02:22.854Z,0.00
2022-09-10T04:03:22.726Z,0.00
2022-09-10T04:04:22.734Z,0.00
2022-09-10T04:05:22.698Z,0.00
2022-09-10T04:06:22.686Z,0.00
2022-09-10T04:07:22.673Z,0.00
2022-09-10T04:08:22.698Z,0.00
2022-09-10T04:09:22.669Z,4.00
2022-09-10T04:10:22.637Z,4.00
2022-09-10T04:11:22.630Z,0.00
2022-09-10T04:12:22.640Z,4.00
2022-09-10T04:13:22.607Z,4.00
2022-09-10T04:14:22.613Z,4.00
2022-09-10T04:15:22.580Z,4.00
2022-09-10T04:16:22.626Z,4.00
2022-09-10T04:17:22.601Z,8.00
2022-09-10T04:18:22.551Z,8.00
2022-09-10T04:19:22.536Z,8.00
2022-09-10T04:20:22.539Z,12.00
2022-09-10T04:21:22.513Z,16.00
2022-09-10T04:22:22.505Z,16.00
2022-09-10T04:23:22.515Z,20.00
2022-09-10T04:24:22.480Z,24.00
2022-09-10T04:25:22.469Z,24.00
2022-09-10T04:26:22.457Z,28.00
2022-09-10T04:27:22.459Z,36.00
2022-09-10T04:28:22.458Z,40.00
2022-09-10T04:29:22.432Z,44.00
2022-09-10T04:30:22.431Z,48.00
2022-09-10T04:31:22.546Z,48.00
2022-09-10T04:32:22.421Z,52.00
2022-09-10T04:33:22.415Z,60.00
2022-09-10T04:34:22.369Z,60.00
2022-09-10T04:35:22.359Z,72.00
2022-09-10T04:36:22.360Z,76.00
2022-09-10T04:37:22.329Z,88.00
2022-09-10T04:38:22.319Z,96.00
2022-09-10T04:39:22.354Z,104.00
2022-09-10T04:40:22.297Z,120.00
2022-09-10T04:41:22.283Z,132.00
2022-09-10T04:42:22.275Z,152.00
2022-09-10T04:43:22.304Z,168.00
2022-09-10T04:44:22.272Z,180.00
2022-09-10T04:45:22.240Z,196.00
2022-09-10T04:46:22.230Z,212.00
2022-09-10T04:47:22.231Z,232.00
2022-09-10T04:48:22.223Z,252.00
2022-09-10T04:49:22.214Z,268.00
2022-09-10T04:50:22.203Z,296.00
2022-09-10T04:51:22.169Z,316.00
2022-09-10T04:52:22.158Z,336.00
2022-09-10T04:53:22.164Z,356.00
2022-09-10T04:54:22.136Z,372.00
2022-09-10T04:55:22.152Z,400.00
2022-09-10T04:56:22.113Z,432.00
2022-09-10T04:57:22.102Z,464.00
2022-09-10T04:58:22.089Z,488.00
2022-09-10T04:59:22.102Z,500.00
2022-09-10T05:00:22.096Z,512.00
2022-09-10T05:01:22.115Z,516.00
2022-09-10T05:02:22.112Z,516.00
2022-09-10T05:03:22.031Z,532.00
2022-09-10T05:04:22.044Z,552.00
2022-09-10T05:05:22.031Z,576.00
2022-09-10T05:06:21.999Z,612.00
2022-09-10T05:07:22.007Z,648.00
2022-09-10T05:08:21.975Z,692.00
2022-09-10T05:09:21.963Z,748.00
2022-09-10T05:10:21.975Z,800.00
2022-09-10T05:11:21.964Z,836.00
2022-09-10T05:12:21.968Z,844.00
2022-09-10T05:13:21.916Z,836.00
2022-09-10T05:14:21.908Z,796.00
2022-09-10T05:15:21.898Z,780.00
2022-09-10T05:16:21.993Z,796.00
2022-09-10T05:17:21.873Z,804.00
2022-09-10T05:18:21.863Z,812.00
2022-09-10T05:19:21.868Z,824.00
2022-09-10T05:20:21.855Z,860.00
2022-09-10T05:21:21.847Z,876.00
2022-09-10T05:22:21.838Z,904.00
2022-09-10T05:23:21.801Z,932.00
2022-09-10T05:24:21.795Z,920.00
2022-09-10T05:25:21.773Z,920.00
2022-09-10T05:26:21.770Z,960.00
2022-09-10T05:27:21.779Z,1008.00
2022-09-10T05:28:21.750Z,1040.00
2022-09-10T05:29:21.767Z,1084.00
2022-09-10T05:30:21.720Z,1180.00
2022-09-10T05:31:21.753Z,1264.00
2022-09-10T05:32:21.722Z,1320.00
2022-09-10T05:33:21.707Z,1312.00
2022-09-10T05:34:21.681Z,1188.00
2022-09-10T05:35:21.663Z,1056.00
2022-09-10T05:36:23.033Z,944.00
2022-09-10T05:37:23.873Z,760.00
2022-09-10T05:38:21.721Z,648.00
2022-09-10T05:39:21.626Z,640.00
2022-09-10T05:40:21.719Z,640.00
2022-09-10T05:41:21.674Z,648.00
2022-09-10T05:42:21.584Z,652.00
2022-09-10T05:43:21.593Z,660.00
2022-09-10T05:44:21.558Z,692.00
2022-09-10T05:45:21.544Z,728.00
2022-09-10T05:46:21.535Z,736.00
2022-09-10T05:47:21.524Z,728.00
2022-09-10T05:48:21.534Z,708.00
2022-09-10T05:49:21.681Z,708.00
2022-09-10T05:50:21.488Z,740.00
2022-09-10T05:51:21.476Z,792.00
2022-09-10T05:52:21.497Z,832.00
2022-09-10T05:53:21.523Z,852.00
2022-09-10T05:54:21.484Z,852.00
2022-09-10T05:55:21.429Z,796.00
2022-09-10T05:56:21.419Z,700.00
2022-09-10T05:57:21.405Z,644.00
2022-09-10T05:58:21.401Z,620.00
2022-09-10T05:59:21.386Z,640.00
2022-09-10T06:00:21.396Z,692.00
2022-09-10T06:01:21.364Z,772.00
2022-09-10T06:02:24.147Z,856.00
2022-09-10T06:03:21.357Z,932.00
2022-09-10T06:04:21.335Z,1020.00
2022-09-10T06:05:21.341Z,1172.00
2022-09-10T06:06:21.305Z,1288.00
2022-09-10T06:07:21.290Z,1228.00
2022-09-10T06:08:21.299Z,1220.00
2022-09-10T06:09:21.269Z,1192.00
2022-09-10T06:10:21.292Z,1136.00
2022-09-10T06:11:21.247Z,1120.00
2022-09-10T06:12:21.239Z,1104.00
2022-09-10T06:13:21.223Z,1108.00
2022-09-10T06:14:21.218Z,1116.00
2022-09-10T06:15:31.146Z,1116.00
2022-09-10T06:16:21.279Z,1092.00
2022-09-10T06:17:21.194Z,1068.00
2022-09-10T06:18:21.253Z,1064.00
2022-09-10T06:19:21.285Z,1060.00
2022-09-10T06:20:21.159Z,1060.00
2022-09-10T06:21:25.008Z,1056.00
2022-09-10T06:22:22.157Z,1076.00
2022-09-10T06:23:21.108Z,1088.00
2022-09-10T06:24:21.120Z,1088.00
2022-09-10T06:25:21.101Z,1112.00
2022-09-10T06:26:21.094Z,1184.00
2022-09-10T06:27:21.087Z,1460.00
2022-09-10T06:28:21.073Z,2072.00
2022-09-10T06:29:21.037Z,3908.00
2022-09-10T06:30:21.060Z,7652.00
2022-09-10T06:31:21.017Z,18560.00
2022-09-10T06:32:21.006Z,51008.00
2022-09-10T06:33:21.018Z,10724.00
2022-09-10T06:34:20.989Z,4972.00
2022-09-10T06:35:20.974Z,2984.00
2022-09-10T06:36:20.972Z,2848.00
2022-09-10T06:37:20.957Z,4072.00
2022-09-10T06:38:20.963Z,6124.00
2022-09-10T06:39:20.957Z,9200.00
2022-09-10T06:40:20.933Z,17632.00
2022-09-10T06:41:20.907Z,8300.00
2022-09-10T06:42:20.910Z,5652.00
2022-09-10T06:43:20.886Z,12452.00
2022-09-10T06:44:20.898Z,60128.00
2022-09-10T06:45:20.863Z,56672.00
2022-09-10T06:48:39.123Z,104736.00
2022-09-10T06:49:21.848Z,76576.00
2022-09-10T06:50:20.843Z,34784.00
2022-09-10T06:51:20.792Z,5576.00
2022-09-10T06:52:20.793Z,8396.00
2022-09-10T06:53:20.781Z,8684.00
2022-09-10T06:54:20.774Z,6792.00
2022-09-10T06:55:20.770Z,6588.00
2022-09-10T06:56:20.752Z,7608.00
2022-09-10T06:57:20.725Z,6276.00
2022-09-10T06:58:20.711Z,4504.00
2022-09-10T06:59:20.714Z,3456.00
2022-09-10T07:00:20.722Z,3136.00
2022-09-10T07:01:20.786Z,3672.00
2022-09-10T07:02:20.700Z,3868.00
2022-09-10T07:03:20.656Z,3396.00
2022-09-10T07:04:20.643Z,2784.00
2022-09-10T07:05:20.653Z,2568.00
2022-09-10T07:06:20.632Z,3224.00
2022-09-10T07:07:20.615Z,4004.00
2022-09-10T07:08:20.598Z,4008.00
2022-09-10T07:09:20.611Z,3768.00
2022-09-10T07:10:20.584Z,3648.00
2022-09-10T07:11:20.567Z,3604.00
2022-09-10T07:12:20.588Z,3592.00
2022-09-10T07:13:20.545Z,3616.00
2022-09-10T07:14:20.531Z,3500.00
2022-09-10T07:15:20.537Z,3360.00
2022-09-10T07:16:20.512Z,3512.00
2022-09-10T07:17:20.499Z,3672.00
2022-09-10T07:18:20.504Z,3460.00
2022-09-10T07:19:20.506Z,3296.00
2022-09-10T07:20:20.480Z,3164.00
2022-09-10T07:21:20.466Z,2904.00
2022-09-10T07:22:20.439Z,2868.00
2022-09-10T07:23:20.430Z,2984.00
2022-09-10T07:24:20.426Z,3040.00
2022-09-10T07:25:20.426Z,2864.00
2022-09-10T07:26:20.406Z,2688.00
2022-09-10T07:27:20.384Z,2660.00
2022-09-10T07:28:20.389Z,2652.00
2022-09-10T07:29:20.362Z,2860.00
2022-09-10T07:30:20.394Z,2552.00
2022-09-10T07:31:20.412Z,2384.00
2022-09-10T07:32:20.329Z,2272.00
2022-09-10T07:33:20.334Z,2180.00
2022-09-10T07:34:20.305Z,2148.00
2022-09-10T07:35:20.293Z,2040.00
2022-09-10T07:36:20.322Z,2016.00
2022-09-10T07:37:20.269Z,2020.00
2022-09-10T07:38:20.258Z,2124.00
2022-09-10T07:39:24.886Z,2356.00
2022-09-10T07:40:21.251Z,2212.00
2022-09-10T07:41:20.241Z,2380.00
2022-09-10T07:42:20.230Z,2740.00
2022-09-10T07:43:20.201Z,2660.00
2022-09-10T07:44:20.236Z,2468.00
2022-09-10T07:45:20.180Z,2624.00
2022-09-10T07:46:20.203Z,2588.00
2022-09-10T07:47:20.169Z,2444.00
2022-09-10T07:48:20.149Z,2340.00
2022-09-10T07:49:20.153Z,2384.00
2022-09-10T07:50:20.122Z,2432.00
2022-09-10T07:51:20.112Z,2552.00
2022-09-10T07:52:20.100Z,2628.00
2022-09-10T07:53:20.112Z,2472.00
2022-09-10T07:54:20.095Z,2520.00
2022-09-10T07:55:20.069Z,2720.00
2022-09-10T07:56:20.050Z,2208.00
2022-09-10T07:57:20.048Z,1980.00
2022-09-10T07:58:20.052Z,1916.00
2022-09-10T07:59:20.077Z,2124.00
2022-09-10T08:00:20.138Z,2044.00
2022-09-10T08:01:20.077Z,1928.00
2022-09-10T08:02:20.005Z,1980.00
2022-09-10T08:03:19.974Z,2048.00
2022-09-10T08:04:19.981Z,2268.00
2022-09-10T08:05:19.965Z,2304.00
2022-09-10T08:06:19.956Z,2096.00
2022-09-10T08:07:19.927Z,2040.00
2022-09-10T08:08:19.919Z,1932.00
2022-09-10T08:09:19.908Z,2160.00
2022-09-10T08:10:19.921Z,2452.00
2022-09-10T08:11:19.899Z,2256.00
2022-09-10T08:12:19.869Z,2068.00
2022-09-10T08:13:19.859Z,2188.00
2022-09-10T08:14:19.854Z,2104.00
2022-09-10T08:15:19.864Z,2532.00
2022-09-10T08:16:19.857Z,2340.00
2022-09-10T08:17:19.847Z,2692.00
2022-09-10T08:18:19.856Z,2368.00
2022-09-10T08:19:19.848Z,2244.00
2022-09-10T08:20:19.799Z,2052.00
2022-09-10T08:21:19.796Z,2176.00
2022-09-10T08:22:19.784Z,3072.00
2022-09-10T08:23:19.749Z,3008.00
2022-09-10T08:24:19.736Z,2892.00
2022-09-10T08:25:19.767Z,3264.00
2022-09-10T08:26:19.709Z,3440.00
2022-09-10T08:27:19.699Z,3476.00
2022-09-10T08:28:22.437Z,3072.00
2022-09-10T08:29:20.678Z,2984.00
2022-09-10T08:30:19.677Z,2860.00
2022-09-10T08:31:19.736Z,2304.00
2022-09-10T08:32:19.669Z,2372.00
2022-09-10T08:33:19.651Z,2504.00
2022-09-10T08:34:19.620Z,2888.00
2022-09-10T08:35:19.608Z,2840.00
2022-09-10T08:36:19.614Z,2940.00
2022-09-10T08:37:19.602Z,3160.00
2022-09-10T08:38:19.594Z,3340.00
2022-09-10T08:39:19.562Z,3320.00
2022-09-10T08:40:19.553Z,3152.00
2022-09-10T08:41:19.580Z,3104.00
2022-09-10T08:42:19.547Z,2888.00
2022-09-10T08:43:19.528Z,2160.00
2022-09-10T08:44:19.517Z,1952.00
2022-09-10T08:45:19.494Z,1936.00
2022-09-10T08:46:19.499Z,1968.00
2022-09-10T08:47:19.472Z,1852.00
2022-09-10T08:48:19.479Z,1816.00
2022-09-10T08:49:19.469Z,1912.00
2022-09-10T08:50:19.437Z,1972.00
2022-09-10T08:51:19.448Z,2128.00
2022-09-10T08:52:19.432Z,2168.00
2022-09-10T08:53:19.406Z,2016.00
2022-09-10T08:54:19.391Z,1972.00
2022-09-10T08:55:19.394Z,1856.00
2022-09-10T08:56:19.386Z,1912.00
2022-09-10T08:57:19.364Z,2620.00
2022-09-10T08:58:19.347Z,2180.00
2022-09-10T08:59:19.335Z,2092.00
2022-09-10T09:00:19.327Z,2120.00
2022-09-10T09:01:19.400Z,2108.00
2022-09-10T09:02:44.643Z,2068.00
2022-09-10T09:03:20.324Z,1980.00
2022-09-10T09:04:19.313Z,1908.00
2022-09-10T09:05:19.270Z,1744.00
2022-09-10T09:06:19.252Z,1636.00
2022-09-10T09:07:19.277Z,1676.00
2022-09-10T09:08:19.232Z,1688.00
2022-09-10T09:09:19.228Z,1684.00
2022-09-10T09:10:19.205Z,1596.00
2022-09-10T09:11:19.221Z,1592.00
2022-09-10T09:12:19.213Z,1620.00
2022-09-10T09:13:19.188Z,1608.00
2022-09-10T09:14:19.162Z,1664.00
2022-09-10T09:15:19.153Z,1748.00
2022-09-10T09:16:19.223Z,1852.00
2022-09-10T09:17:19.130Z,1884.00
2022-09-10T09:18:19.119Z,1840.00
2022-09-10T09:19:19.128Z,1740.00
2022-09-10T09:20:19.112Z,1612.00
2022-09-10T09:21:19.087Z,1480.00
2022-09-10T09:22:19.089Z,1328.00
2022-09-10T09:23:19.079Z,1244.00
2022-09-10T09:24:19.049Z,1216.00
2022-09-10T09:25:19.054Z,1200.00
2022-09-10T09:26:19.028Z,1144.00
2022-09-10T09:27:19.049Z,1096.00
2022-09-10T09:28:19.010Z,1084.00
2022-09-10T09:29:19.009Z,1096.00
2022-09-10T09:30:18.980Z,1132.00
2022-09-10T09:31:19.038Z,1136.00
2022-09-10T09:32:18.979Z,1184.00
2022-09-10T09:33:18.949Z,1148.00
2022-09-10T09:34:18.954Z,1196.00
2022-09-10T09:35:18.945Z,1312.00
2022-09-10T09:36:18.928Z,1420.00
2022-09-10T09:37:18.935Z,1560.00
2022-09-10T09:38:18.891Z,1676.00
2022-09-10T09:39:18.878Z,1740.00
2022-09-10T09:40:18.869Z,1772.00
2022-09-10T09:41:18.858Z,1776.00
2022-09-10T09:42:18.865Z,1768.00
2022-09-10T09:43:18.867Z,1740.00
2022-09-10T09:44:18.820Z,1716.00
2022-09-10T09:45:18.812Z,1732.00
2022-09-10T09:46:18.799Z,2124.00
2022-09-10T09:47:18.787Z,2172.00
2022-09-10T09:48:18.806Z,2032.00
2022-09-10T09:49:18.782Z,2228.00
2022-09-10T09:50:18.788Z,1888.00
2022-09-10T09:51:18.743Z,2628.00
2022-09-10T09:52:18.785Z,2764.00
2022-09-10T09:53:18.740Z,2936.00
2022-09-10T09:55:19.714Z,3008.00
2022-09-10T09:56:18.686Z,3000.00
2022-09-10T09:57:18.691Z,3020.00
2022-09-10T09:58:18.661Z,3076.00
2022-09-10T09:59:18.673Z,2372.00
2022-09-10T10:00:18.644Z,2204.00
2022-09-10T10:01:18.670Z,2136.00
2022-09-10T10:02:18.692Z,1996.00
2022-09-10T10:03:18.654Z,1888.00
2022-09-10T10:04:18.592Z,1840.00
2022-09-10T10:05:18.605Z,1848.00
2022-09-10T10:06:18.599Z,1832.00
2022-09-10T10:07:18.575Z,1872.00
2022-09-10T10:08:18.586Z,1928.00
2022-09-10T10:09:18.536Z,1948.00
2022-09-10T10:10:18.564Z,1956.00
2022-09-10T10:11:18.544Z,1968.00
2022-09-10T10:12:18.508Z,1940.00
2022-09-10T10:13:18.498Z,1932.00
2022-09-10T10:14:18.494Z,1940.00
2022-09-10T10:15:18.500Z,1952.00
2022-09-10T10:16:18.475Z,1952.00
2022-09-10T10:17:18.448Z,1924.00
2022-09-10T10:18:18.434Z,1916.00
2022-09-10T10:19:18.444Z,1916.00
2022-09-10T10:20:18.410Z,1908.00
2022-09-10T10:21:18.449Z,1928.00
2022-09-10T10:22:18.388Z,1940.00
2022-09-10T10:23:18.391Z,1920.00
2022-09-10T10:24:18.383Z,1920.00
2022-09-10T10:25:18.355Z,1900.00
2022-09-10T10:26:18.345Z,1888.00
2022-09-10T10:27:18.364Z,1832.00
2022-09-10T10:28:18.321Z,1784.00
2022-09-10T10:29:18.315Z,1800.00
2022-09-10T10:30:18.294Z,1764.00
2022-09-10T10:31:18.372Z,1744.00
2022-09-10T10:32:18.294Z,1756.00
2022-09-10T10:33:18.274Z,1840.00
2022-09-10T10:34:18.276Z,1936.00
2022-09-10T10:35:18.241Z,2016.00
2022-09-10T10:36:18.231Z,2072.00
2022-09-10T10:37:18.219Z,2068.00
2022-09-10T10:38:18.240Z,2056.00
2022-09-10T10:39:18.214Z,2040.00
2022-09-10T10:40:18.224Z,2052.00
2022-09-10T10:41:18.193Z,2784.00
2022-09-10T10:42:18.160Z,2612.00
2022-09-10T10:43:18.172Z,2804.00
2022-09-10T10:44:18.168Z,2124.00
2022-09-10T10:45:18.128Z,2184.00
2022-09-10T10:46:18.166Z,2204.00
2022-09-10T10:47:18.101Z,2104.00
2022-09-10T10:48:18.114Z,2060.00
2022-09-10T10:49:18.081Z,2084.00
2022-09-10T10:50:18.080Z,2108.00
2022-09-10T10:51:18.059Z,2216.00
2022-09-10T10:52:18.069Z,2348.00
2022-09-10T10:53:18.046Z,2392.00
2022-09-10T10:54:18.024Z,2420.00
2022-09-10T10:55:18.011Z,2372.00
2022-09-10T10:56:18.037Z,2680.00
2022-09-10T10:57:17.992Z,3180.00
2022-09-10T10:58:17.978Z,3268.00
2022-09-10T10:59:17.967Z,3332.00
2022-09-10T11:00:17.990Z,3348.00
2022-09-10T11:01:17.976Z,2944.00
2022-09-10T11:02:18.028Z,3192.00
2022-09-10T11:03:17.919Z,2796.00
2022-09-10T11:04:17.911Z,3356.00
2022-09-10T11:05:17.897Z,3076.00
2022-09-10T11:06:17.890Z,3240.00
2022-09-10T11:07:17.895Z,2884.00
2022-09-10T11:08:17.887Z,3656.00
2022-09-10T11:09:17.856Z,3248.00
2022-09-10T11:10:17.842Z,3132.00
2022-09-10T11:11:17.849Z,2888.00
2022-09-10T11:12:17.860Z,2588.00
2022-09-10T11:13:17.809Z,2444.00
2022-09-10T11:14:17.814Z,2332.00
2022-09-10T11:15:17.804Z,2260.00
2022-09-10T11:16:17.846Z,2204.00
2022-09-10T11:17:17.773Z,2176.00
2022-09-10T11:18:17.750Z,2132.00
2022-09-10T11:19:17.744Z,2164.00
2022-09-10T11:20:28.419Z,2224.00
2022-09-10T11:21:18.742Z,2220.00
2022-09-10T11:22:17.709Z,2204.00
2022-09-10T11:23:17.698Z,2192.00
2022-09-10T11:24:17.740Z,2156.00
2022-09-10T11:25:17.672Z,2132.00
2022-09-10T11:26:17.681Z,2164.00
2022-09-10T11:27:17.669Z,2220.00
2022-09-10T11:28:17.655Z,2304.00
2022-09-10T11:29:17.628Z,2372.00
2022-09-10T11:30:17.615Z,2416.00
2022-09-10T11:31:17.717Z,2484.00
2022-09-10T11:32:17.623Z,2620.00
2022-09-10T11:33:17.616Z,2756.00
2022-09-10T11:34:17.569Z,2824.00
2022-09-10T11:35:17.557Z,2880.00
2022-09-10T11:36:17.547Z,2816.00
2022-09-10T11:37:17.535Z,2900.00
2022-09-10T11:38:17.575Z,3008.00
2022-09-10T11:39:17.601Z,3060.00
2022-09-10T11:40:17.508Z,2976.00
2022-09-10T11:41:17.489Z,2956.00
2022-09-10T11:42:17.482Z,2952.00
2022-09-10T11:43:17.487Z,2932.00
2022-09-10T11:44:17.505Z,2888.00
2022-09-10T11:45:17.445Z,2820.00
2022-09-10T11:46:17.519Z,2784.00
2022-09-10T11:47:17.425Z,2736.00
2022-09-10T11:48:17.443Z,2664.00
2022-09-10T11:49:17.398Z,2516.00
2022-09-10T11:50:17.399Z,2480.00
2022-09-10T11:51:17.385Z,2584.00
2022-09-10T11:52:17.389Z,2392.00
2022-09-10T11:53:17.354Z,2332.00
2022-09-10T11:54:17.361Z,2312.00
2022-09-10T11:55:17.330Z,3468.00
2022-09-10T11:56:17.352Z,3860.00
2022-09-10T11:57:17.318Z,3852.00
2022-09-10T11:58:17.297Z,3852.00
2022-09-10T11:59:17.305Z,3796.00
2022-09-10T12:00:17.291Z,3824.00
2022-09-10T12:01:17.281Z,3840.00
2022-09-10T12:02:17.299Z,2580.00
2022-09-10T12:03:17.307Z,2132.00
2022-09-10T12:04:17.248Z,3508.00
2022-09-10T12:05:17.217Z,1964.00
2022-09-10T12:06:17.213Z,2020.00
2022-09-10T12:07:17.223Z,2016.00
2022-09-10T12:08:17.181Z,2044.00
2022-09-10T12:09:17.185Z,3180.00
2022-09-10T12:10:17.175Z,2192.00
2022-09-10T12:11:17.161Z,2228.00
2022-09-10T12:12:17.137Z,2268.00
2022-09-10T12:13:17.123Z,2180.00
2022-09-10T12:14:17.114Z,2232.00
2022-09-10T12:15:17.161Z,3584.00
2022-09-10T12:16:24.157Z,2108.00
2022-09-10T12:17:17.081Z,2124.00
2022-09-10T12:18:17.091Z,2164.00
2022-09-10T12:19:17.075Z,2156.00
2022-09-10T12:20:17.048Z,2176.00
2022-09-10T12:21:17.069Z,2212.00
2022-09-10T12:22:17.023Z,2244.00
2022-09-10T12:23:17.015Z,2216.00
2022-09-10T12:24:17.007Z,2180.00
2022-09-10T12:25:16.994Z,2148.00
2022-09-10T12:26:16.996Z,2116.00
2022-09-10T12:27:16.966Z,2084.00
2022-09-10T12:28:16.958Z,2072.00
2022-09-10T12:29:16.963Z,2020.00
2022-09-10T12:30:16.935Z,1980.00
2022-09-10T12:31:16.992Z,2008.00
2022-09-10T12:32:16.939Z,2096.00
2022-09-10T12:33:16.938Z,2476.00
2022-09-10T12:34:16.892Z,3080.00
2022-09-10T12:35:16.880Z,5092.00
2022-09-10T12:36:16.863Z,4972.00